createdAt,value
2023-05-05T00:00:54.367Z,1.40
2023-05-05T00:03:23.030Z,1.60
2023-05-05T00:05:51.108Z,1.43
2023-05-05T00:08:19.319Z,1.50
2023-05-05T00:10:47.413Z,1.43
2023-05-05T00:13:16.700Z,1.50
2023-05-05T00:15:45.661Z,1.50
2023-05-05T00:18:14.372Z,1.57
2023-05-05T00:20:42.269Z,1.50
2023-05-05T00:23:10.382Z,1.20
2023-05-05T00:25:38.594Z,1.40
2023-05-05T00:28:06.991Z,1.43
2023-05-05T00:30:36.374Z,1.70
2023-05-05T00:33:04.389Z,1.50
2023-05-05T00:35:32.413Z,1.90
2023-05-05T00:38:00.681Z,1.40
2023-05-05T00:40:28.623Z,1.60
2023-05-05T00:42:56.591Z,1.40
2023-05-05T00:45:24.517Z,1.20
2023-05-05T00:47:55.643Z,1.93
2023-05-05T00:50:25.162Z,1.57
2023-05-05T00:52:55.150Z,1.40
2023-05-05T00:55:23.291Z,1.70
2023-05-05T00:57:51.285Z,1.40
2023-05-05T01:00:19.340Z,1.30
2023-05-05T01:02:47.307Z,1.50
2023-05-05T01:05:17.471Z,1.30
2023-05-05T01:08:04.039Z,1.60
2023-05-05T01:10:38.073Z,1.23
2023-05-05T01:13:17.456Z,1.43
2023-05-05T01:15:49.577Z,1.40
2023-05-05T01:18:36.343Z,1.50
2023-05-05T01:21:08.450Z,1.50
2023-05-05T01:23:57.051Z,1.50
2023-05-05T01:26:44.856Z,1.50
2023-05-05T01:29:33.532Z,1.60
2023-05-05T01:32:04.646Z,1.20
2023-05-05T01:34:38.278Z,1.20
2023-05-05T01:37:09.416Z,1.50
2023-05-05T01:39:38.662Z,1.90
2023-05-05T01:42:09.809Z,1.60
2023-05-05T01:44:38.313Z,1.40
2023-05-05T01:47:07.866Z,1.27
2023-05-05T01:49:37.230Z,1.63
2023-05-05T01:52:06.541Z,1.40
2023-05-05T01:54:35.609Z,1.57
2023-05-05T01:57:04.873Z,1.50
2023-05-05T01:59:33.678Z,1.60
2023-05-05T02:02:03.270Z,1.37
2023-05-05T02:04:34.290Z,1.50
2023-05-05T02:07:03.045Z,1.50
2023-05-05T02:09:31.447Z,1.20
2023-05-05T02:12:00.129Z,1.50
2023-05-05T02:14:28.871Z,1.40
2023-05-05T02:16:58.020Z,1.70
2023-05-05T02:19:30.566Z,1.80
2023-05-05T02:22:00.052Z,1.60
2023-05-05T02:24:28.109Z,1.30
2023-05-05T02:26:56.125Z,1.30
2023-05-05T02:29:29.429Z,1.27
2023-05-05T02:32:02.588Z,1.20
2023-05-05T02:34:32.127Z,1.40
2023-05-05T02:37:04.939Z,1.50
2023-05-05T02:39:35.800Z,1.30
2023-05-05T02:42:05.035Z,1.33
2023-05-05T02:44:34.344Z,1.30
2023-05-05T02:47:04.004Z,1.50
2023-05-05T02:49:31.921Z,1.23
2023-05-05T02:52:01.290Z,1.47
2023-05-05T02:54:29.440Z,1.60
2023-05-05T02:56:58.623Z,1.40
2023-05-05T02:59:37.000Z,1.70
2023-05-05T03:02:13.643Z,1.40
2023-05-05T03:04:43.965Z,2.23
2023-05-05T03:07:15.335Z,1.53
2023-05-05T03:09:47.579Z,1.50
2023-05-05T03:12:19.584Z,2.73
2023-05-05T03:14:48.785Z,1.37
2023-05-05T03:17:18.783Z,1.20
2023-05-05T03:19:46.999Z,1.73
2023-05-05T03:22:16.367Z,1.37
2023-05-05T03:24:44.268Z,1.30
2023-05-05T03:27:12.162Z,1.50
2023-05-05T03:29:40.092Z,1.43
2023-05-05T03:32:09.181Z,1.73
2023-05-05T03:34:37.724Z,1.80
2023-05-05T03:37:05.709Z,1.30
2023-05-05T03:39:34.997Z,1.80
2023-05-05T03:42:02.908Z,2.13
2023-05-05T03:44:30.797Z,1.40
2023-05-05T03:46:58.673Z,1.50
2023-05-05T03:49:26.827Z,1.50
2023-05-05T03:51:54.723Z,1.70
2023-05-05T03:54:22.649Z,1.40
2023-05-05T03:56:51.931Z,1.23
2023-05-05T03:59:20.062Z,1.50
2023-05-05T04:01:49.883Z,1.40
2023-05-05T04:04:17.933Z,1.63
2023-05-05T04:06:45.907Z,1.23
2023-05-05T04:09:14.640Z,1.47
2023-05-05T04:11:42.571Z,1.40
2023-05-05T04:14:11.864Z,1.50
2023-05-05T04:16:39.859Z,1.30
2023-05-05T04:19:07.739Z,1.37
2023-05-05T04:21:36.366Z,1.53
2023-05-05T04:24:04.386Z,1.30
2023-05-05T04:26:32.320Z,1.67
2023-05-05T04:29:00.222Z,1.43
2023-05-05T04:31:29.564Z,1.50
2023-05-05T04:33:57.499Z,1.30
2023-05-05T04:36:25.455Z,1.50
2023-05-05T04:38:53.454Z,1.40
2023-05-05T04:41:21.370Z,1.80
2023-05-05T04:43:49.308Z,1.60
2023-05-05T04:46:17.267Z,1.53
2023-05-05T04:48:46.542Z,1.60
2023-05-05T04:51:14.484Z,1.70
2023-05-05T04:53:42.388Z,1.60
2023-05-05T04:56:10.351Z,1.50
2023-05-05T04:58:38.231Z,1.60
2023-05-05T05:01:06.565Z,1.30
2023-05-05T05:03:34.509Z,1.77
2023-05-05T05:06:03.825Z,1.20
2023-05-05T05:08:31.735Z,1.70
2023-05-05T05:11:00.233Z,1.77
2023-05-05T05:13:28.122Z,1.57
2023-05-05T05:15:56.080Z,1.20
2023-05-05T05:18:24.056Z,1.77
2023-05-05T05:20:51.979Z,1.60
2023-05-05T05:23:21.287Z,1.60
2023-05-05T05:25:49.227Z,1.50
2023-05-05T05:28:17.126Z,1.53
2023-05-05T05:30:45.012Z,1.77
2023-05-05T05:33:13.020Z,1.63
2023-05-05T05:35:41.013Z,1.80
2023-05-05T05:38:08.900Z,1.60
2023-05-05T05:40:38.278Z,1.73
2023-05-05T05:43:06.554Z,2.00
2023-05-05T05:45:34.500Z,1.50
2023-05-05T05:48:02.426Z,1.60
2023-05-05T05:50:30.360Z,1.70
2023-05-05T05:52:58.229Z,1.87
2023-05-05T05:55:26.181Z,1.93
2023-05-05T05:57:55.449Z,1.93
2023-05-05T06:00:23.570Z,1.83
2023-05-05T06:02:52.415Z,1.60
2023-05-05T06:05:20.357Z,1.87
2023-05-05T06:07:48.272Z,1.90
2023-05-05T06:10:27.493Z,1.83
2023-05-05T06:12:57.876Z,1.70
2023-05-05T06:15:26.032Z,2.20
2023-05-05T06:17:54.022Z,2.00
2023-05-05T06:20:22.172Z,1.73
2023-05-05T06:22:50.140Z,1.50
2023-05-05T06:25:18.286Z,2.33
2023-05-05T06:27:46.453Z,1.93
2023-05-05T06:30:16.146Z,1.70
2023-05-05T06:32:44.046Z,2.20
2023-05-05T06:35:12.405Z,2.43
2023-05-05T06:37:40.288Z,2.03
2023-05-05T06:40:10.546Z,2.10
2023-05-05T06:42:38.692Z,1.70
2023-05-05T06:45:07.555Z,2.13
2023-05-05T06:47:37.325Z,2.30
2023-05-05T06:50:06.005Z,2.00
2023-05-05T06:52:34.092Z,2.00
2023-05-05T06:55:02.164Z,2.30
2023-05-05T06:57:30.109Z,1.80
2023-05-05T06:59:58.008Z,1.83
2023-05-05T07:02:26.951Z,1.80
2023-05-05T07:04:56.609Z,2.23
2023-05-05T07:07:24.556Z,2.03
2023-05-05T07:09:52.492Z,2.37
2023-05-05T07:12:20.399Z,1.80
2023-05-05T07:14:48.302Z,1.97
2023-05-05T07:17:16.206Z,2.10
2023-05-05T07:19:44.325Z,2.00
2023-05-05T07:22:13.649Z,1.90
2023-05-05T07:24:41.624Z,2.03
2023-05-05T07:27:09.793Z,2.30
2023-05-05T07:29:37.729Z,2.10
2023-05-05T07:32:06.163Z,1.90
2023-05-05T07:34:34.713Z,2.30
2023-05-05T07:37:04.115Z,2.67
2023-05-05T07:39:33.718Z,2.30
2023-05-05T07:42:01.791Z,2.97
2023-05-05T07:44:29.714Z,2.10
2023-05-05T07:46:57.647Z,2.73
2023-05-05T07:49:25.677Z,2.63
2023-05-05T07:51:53.676Z,1.80
2023-05-05T07:54:21.819Z,2.00
2023-05-05T07:56:51.141Z,2.10
2023-05-05T07:59:19.035Z,2.47
2023-05-05T08:01:46.977Z,2.70
2023-05-05T08:04:15.050Z,2.53
2023-05-05T08:06:42.972Z,2.60
2023-05-05T08:09:10.890Z,2.33
2023-05-05T08:11:38.767Z,2.10
2023-05-05T08:14:08.928Z,2.33
2023-05-05T08:16:36.892Z,2.27
2023-05-05T08:19:07.903Z,2.30
2023-05-05T08:21:42.669Z,2.70
2023-05-05T08:24:10.561Z,2.90
2023-05-05T08:26:38.488Z,2.27
2023-05-05T08:29:08.278Z,2.50
2023-05-05T08:31:37.916Z,2.97
2023-05-05T08:34:05.996Z,2.57
2023-05-05T08:36:34.163Z,2.40
2023-05-05T08:39:02.072Z,2.67
2023-05-05T08:41:30.061Z,2.70
2023-05-05T08:43:58.047Z,2.60
2023-05-05T08:46:28.340Z,2.20
2023-05-05T08:48:56.920Z,2.30
2023-05-05T08:51:25.383Z,2.00
2023-05-05T08:53:58.504Z,2.83
2023-05-05T08:56:28.515Z,3.10
2023-05-05T08:58:57.887Z,2.70
2023-05-05T09:01:27.518Z,2.00
2023-05-05T09:03:55.873Z,2.50
2023-05-05T09:06:25.668Z,2.50
2023-05-05T09:08:54.151Z,2.23
2023-05-05T09:11:23.193Z,2.80
2023-05-05T09:13:51.276Z,2.23
2023-05-05T09:16:19.181Z,2.40
2023-05-05T09:18:48.581Z,2.50
2023-05-05T09:21:23.222Z,2.83
2023-05-05T09:24:10.166Z,2.07
2023-05-05T09:26:39.551Z,2.70
2023-05-05T09:29:07.890Z,2.40
2023-05-05T09:31:37.102Z,2.73
2023-05-05T09:34:16.894Z,2.10
2023-05-05T09:36:47.737Z,2.30
2023-05-05T09:39:17.514Z,2.30
2023-05-05T09:41:45.944Z,2.27
2023-05-05T09:44:16.010Z,2.07
2023-05-05T09:46:51.549Z,2.30
2023-05-05T09:49:23.505Z,2.90
2023-05-05T09:51:52.899Z,2.40
2023-05-05T09:54:28.348Z,2.40
2023-05-05T09:56:57.042Z,2.40
2023-05-05T09:59:25.734Z,2.40
2023-05-05T10:01:53.701Z,2.73
2023-05-05T10:04:28.103Z,2.50
2023-05-05T10:06:56.680Z,2.70
2023-05-05T10:09:24.860Z,2.60
2023-05-05T10:11:53.491Z,2.00
2023-05-05T10:14:21.673Z,2.40
2023-05-05T10:16:50.967Z,2.43
2023-05-05T10:19:20.457Z,2.20
2023-05-05T10:21:52.158Z,2.30
2023-05-05T10:24:28.221Z,2.67
2023-05-05T10:26:58.114Z,2.50
2023-05-05T10:29:36.298Z,2.43
2023-05-05T10:32:24.429Z,2.40
2023-05-05T10:34:56.376Z,2.30
2023-05-05T10:37:26.130Z,2.57
2023-05-05T10:39:54.941Z,2.50
2023-05-05T10:42:24.042Z,2.50
2023-05-05T10:44:52.015Z,2.30
2023-05-05T10:47:20.565Z,2.87
2023-05-05T10:49:54.984Z,2.17
2023-05-05T10:52:33.461Z,2.17
2023-05-05T10:55:06.148Z,2.47
2023-05-05T10:57:38.032Z,2.30
2023-05-05T11:00:08.716Z,2.60
2023-05-05T11:02:38.682Z,2.17
2023-05-05T11:05:14.218Z,2.20
2023-05-05T11:07:44.373Z,2.30
2023-05-05T11:10:14.147Z,2.30
2023-05-05T11:13:19.975Z,2.40
2023-05-05T11:15:49.233Z,2.30
2023-05-05T11:18:34.123Z,2.43
2023-05-05T11:21:19.219Z,2.30
2023-05-05T11:23:52.650Z,2.37
2023-05-05T11:26:50.368Z,3.00
2023-05-05T11:29:18.521Z,2.33
2023-05-05T11:31:48.065Z,2.50
2023-05-05T11:34:27.902Z,2.00
2023-05-05T11:36:59.987Z,2.87
2023-05-05T11:39:40.395Z,2.60
2023-05-05T11:42:27.213Z,2.20
2023-05-05T11:44:55.712Z,2.40
2023-05-05T11:47:31.221Z,2.80
2023-05-05T11:49:59.411Z,2.30
2023-05-05T11:52:28.548Z,2.33
2023-05-05T11:55:02.430Z,2.53
2023-05-05T11:57:31.264Z,2.33
2023-05-05T12:00:01.675Z,2.47
2023-05-05T12:02:31.541Z,2.03
2023-05-05T12:05:00.403Z,2.63
2023-05-05T12:07:31.287Z,2.60
2023-05-05T12:10:00.967Z,2.53
2023-05-05T12:12:36.977Z,2.60
2023-05-05T12:15:05.741Z,2.57
2023-05-05T12:17:42.633Z,2.33
2023-05-05T12:20:12.278Z,2.47
2023-05-05T12:22:40.809Z,2.43
2023-05-05T12:25:11.319Z,2.27
2023-05-05T12:27:39.308Z,2.17
2023-05-05T12:30:15.716Z,2.53
2023-05-05T12:32:44.452Z,2.40
2023-05-05T12:35:12.968Z,2.30
2023-05-05T12:37:41.075Z,2.37
2023-05-05T12:40:46.503Z,2.23
2023-05-05T12:43:28.301Z,2.20
2023-05-05T12:46:07.327Z,2.63
2023-05-05T12:48:36.494Z,3.00
2023-05-05T12:51:23.181Z,2.60
2023-05-05T12:54:03.043Z,2.50
2023-05-05T12:56:34.363Z,2.37
2023-05-05T12:59:03.029Z,2.60
2023-05-05T13:01:31.663Z,2.20
2023-05-05T13:04:13.991Z,1.90
2023-05-05T13:06:43.349Z,2.30
2023-05-05T13:09:24.064Z,2.23
2023-05-05T13:11:54.502Z,2.20
2023-05-05T13:14:22.988Z,2.10
2023-05-05T13:16:51.066Z,2.30
2023-05-05T13:19:18.971Z,2.53
2023-05-05T13:21:46.848Z,2.10
2023-05-05T13:24:28.153Z,2.47
2023-05-05T13:27:04.548Z,1.90
2023-05-05T13:29:33.118Z,2.27
2023-05-05T13:32:01.138Z,2.50
2023-05-05T13:34:29.058Z,2.07
2023-05-05T13:36:57.094Z,2.33
2023-05-05T13:39:24.965Z,2.60
2023-05-05T13:41:52.868Z,2.37
2023-05-05T13:44:22.218Z,2.77
2023-05-05T13:46:50.181Z,2.13
2023-05-05T13:49:18.214Z,2.10
2023-05-05T13:51:47.132Z,1.87
2023-05-05T13:54:15.338Z,1.90
2023-05-05T13:56:43.961Z,2.20
2023-05-05T13:59:11.900Z,2.73
2023-05-05T14:01:41.343Z,2.50
2023-05-05T14:04:10.044Z,2.40
2023-05-05T14:06:37.942Z,2.20
2023-05-05T14:09:07.707Z,2.57
2023-05-05T14:11:35.638Z,1.90
2023-05-05T14:14:03.843Z,2.30
2023-05-05T14:16:31.906Z,2.20
2023-05-05T14:19:01.659Z,2.33
2023-05-05T14:21:29.581Z,1.97
2023-05-05T14:23:57.510Z,2.20
2023-05-05T14:26:25.655Z,2.30
2023-05-05T14:28:53.598Z,2.20
2023-05-05T14:31:21.550Z,2.30
2023-05-05T14:33:49.511Z,2.53
2023-05-05T14:36:18.778Z,1.93
2023-05-05T14:38:46.748Z,2.27
2023-05-05T14:41:14.729Z,1.77
2023-05-05T14:43:42.627Z,1.80
2023-05-05T14:46:10.723Z,2.13
2023-05-05T14:48:38.834Z,2.07
2023-05-05T14:51:06.860Z,2.27
2023-05-05T14:53:36.965Z,2.10
2023-05-05T14:56:04.994Z,2.30
2023-05-05T14:58:32.904Z,1.80
2023-05-05T15:01:00.956Z,2.07
2023-05-05T15:03:29.047Z,2.00
2023-05-05T15:05:57.079Z,1.77
2023-05-05T15:08:25.222Z,1.90
2023-05-05T15:10:54.552Z,2.10
2023-05-05T15:13:22.651Z,2.10
2023-05-05T15:15:51.359Z,1.97
2023-05-05T15:18:19.460Z,2.10
2023-05-05T15:20:47.408Z,1.60
2023-05-05T15:23:16.110Z,2.10
2023-05-05T15:25:44.155Z,2.07
2023-05-05T15:28:13.430Z,1.90
2023-05-05T15:30:41.526Z,2.00
2023-05-05T15:33:09.497Z,1.90
2023-05-05T15:35:37.604Z,2.23
2023-05-05T15:38:05.837Z,2.00
2023-05-05T15:40:33.805Z,2.53
2023-05-05T15:43:01.703Z,1.77
2023-05-05T15:45:31.101Z,2.03
2023-05-05T15:47:59.080Z,1.97
2023-05-05T15:50:27.062Z,2.20
2023-05-05T15:52:57.028Z,2.03
2023-05-05T15:55:25.822Z,1.90
2023-05-05T15:57:53.772Z,1.80
2023-05-05T16:00:22.271Z,2.00
2023-05-05T16:02:51.717Z,2.10
2023-05-05T16:05:21.413Z,2.47
2023-05-05T16:07:50.923Z,2.00
2023-05-05T16:10:19.455Z,2.40
2023-05-05T16:12:47.462Z,2.43
2023-05-05T16:15:15.423Z,2.07
2023-05-05T16:17:43.319Z,2.10
2023-05-05T16:20:13.479Z,1.80
2023-05-05T16:22:41.399Z,2.40
2023-05-05T16:25:10.277Z,1.77
2023-05-05T16:27:38.454Z,2.23
2023-05-05T16:30:07.444Z,1.97
2023-05-05T16:32:35.443Z,2.20
2023-05-05T16:35:03.384Z,2.07
2023-05-05T16:37:32.658Z,3.37
2023-05-05T16:40:01.507Z,2.10
2023-05-05T16:42:29.393Z,2.20
2023-05-05T16:44:57.274Z,2.00
2023-05-05T16:47:25.267Z,2.30
2023-05-05T16:49:53.392Z,2.43
2023-05-05T16:52:21.388Z,2.23
2023-05-05T16:54:55.548Z,1.60
2023-05-05T16:57:23.764Z,2.13
2023-05-05T16:59:51.867Z,2.30
2023-05-05T17:02:19.769Z,2.00
2023-05-05T17:04:47.763Z,2.10
2023-05-05T17:07:15.683Z,2.10
2023-05-05T17:09:43.611Z,2.17
2023-05-05T17:12:12.886Z,2.17
2023-05-05T17:14:41.502Z,1.97
2023-05-05T17:17:09.677Z,2.30
2023-05-05T17:19:37.680Z,2.20
2023-05-05T17:22:05.604Z,2.40
2023-05-05T17:24:33.526Z,2.30
2023-05-05T17:27:02.025Z,2.13
2023-05-05T17:29:31.323Z,2.40
2023-05-05T17:31:59.251Z,1.80
2023-05-05T17:34:27.173Z,2.40
2023-05-05T17:36:55.102Z,2.20
2023-05-05T17:39:22.995Z,2.13
2023-05-05T17:41:51.286Z,2.10
2023-05-05T17:44:19.222Z,2.40
2023-05-05T17:46:48.764Z,2.13
2023-05-05T17:49:17.445Z,1.73
2023-05-05T17:51:45.605Z,2.20
2023-05-05T17:54:13.507Z,2.10
2023-05-05T17:56:41.406Z,1.97
2023-05-05T17:59:09.570Z,1.90
2023-05-05T18:01:37.499Z,2.00
2023-05-05T18:04:09.680Z,1.70
2023-05-05T18:06:37.715Z,2.00
2023-05-05T18:09:05.610Z,2.10
2023-05-05T18:11:34.051Z,2.30
2023-05-05T18:14:01.959Z,1.97
2023-05-05T18:16:29.868Z,2.60
2023-05-05T18:18:57.783Z,2.37
2023-05-05T18:21:27.086Z,2.03
2023-05-05T18:24:01.766Z,1.80
2023-05-05T18:26:36.164Z,2.23
2023-05-05T18:29:04.050Z,2.20
2023-05-05T18:31:32.046Z,2.20
2023-05-05T18:33:59.961Z,1.80
2023-05-05T18:36:29.287Z,2.07
2023-05-05T18:38:57.385Z,2.17
2023-05-05T18:41:25.281Z,1.67
2023-05-05T18:43:53.194Z,2.30
2023-05-05T18:46:22.530Z,2.03
2023-05-05T18:48:50.829Z,2.00
2023-05-05T18:51:18.862Z,1.93
2023-05-05T18:53:48.170Z,2.37
2023-05-05T18:56:16.127Z,2.27
2023-05-05T18:58:44.024Z,2.53
2023-05-05T19:01:11.964Z,2.00
2023-05-05T19:03:39.908Z,1.93
2023-05-05T19:06:08.351Z,2.10
2023-05-05T19:08:36.250Z,2.17
2023-05-05T19:11:05.642Z,2.17
2023-05-05T19:13:33.568Z,2.00
2023-05-05T19:16:01.535Z,1.90
2023-05-05T19:18:29.500Z,1.90
2023-05-05T19:20:57.479Z,1.90
2023-05-05T19:23:25.414Z,2.00
2023-05-05T19:25:53.488Z,2.20
2023-05-05T19:28:22.842Z,1.90
2023-05-05T19:30:50.764Z,2.60
2023-05-05T19:33:18.931Z,2.03
2023-05-05T19:35:46.887Z,2.00
2023-05-05T19:38:14.884Z,2.07
2023-05-05T19:40:43.090Z,2.17
2023-05-05T19:43:11.070Z,1.87
2023-05-05T19:45:40.417Z,1.77
2023-05-05T19:48:08.372Z,2.00
2023-05-05T19:50:36.296Z,2.17
2023-05-05T19:53:04.761Z,2.00
2023-05-05T19:55:33.237Z,2.70
2023-05-05T20:01:10.383Z,2.47
2023-05-05T20:03:38.577Z,1.80
2023-05-05T20:06:07.098Z,2.50
2023-05-05T20:08:35.093Z,2.40
2023-05-05T20:11:03.196Z,2.10
2023-05-05T20:13:31.096Z,2.20
2023-05-05T20:15:59.594Z,2.03
2023-05-05T20:18:29.158Z,2.13
2023-05-05T20:20:59.006Z,2.13
2023-05-05T20:23:29.299Z,2.10
2023-05-05T20:26:14.493Z,2.20
2023-05-05T20:28:45.323Z,2.30
2023-05-05T20:31:14.934Z,1.83
2023-05-05T20:33:44.435Z,2.50
2023-05-05T20:36:12.455Z,1.80
2023-05-05T20:38:40.340Z,2.90
2023-05-05T20:41:08.412Z,2.40
2023-05-05T20:43:37.441Z,2.03
2023-05-05T20:46:05.369Z,2.40
2023-05-05T20:48:33.286Z,2.57
2023-05-05T20:51:06.028Z,2.30
2023-05-05T20:53:34.037Z,2.03
2023-05-05T20:56:01.997Z,2.30
2023-05-05T20:58:30.753Z,2.10
2023-05-05T21:00:58.920Z,1.87
2023-05-05T21:03:59.950Z,2.23
2023-05-05T21:06:29.328Z,2.07
2023-05-05T21:08:57.332Z,2.00
2023-05-05T21:11:25.243Z,1.87
2023-05-05T21:13:53.152Z,2.10
2023-05-05T21:16:21.101Z,2.20
2023-05-05T21:18:49.050Z,1.83
2023-05-05T21:21:17.278Z,2.00
2023-05-05T21:23:48.725Z,1.73
2023-05-05T21:26:16.799Z,1.97
2023-05-05T21:28:44.751Z,2.00
2023-05-05T21:31:21.742Z,2.10
2023-05-05T21:33:50.313Z,2.30
2023-05-05T21:36:19.310Z,2.13
2023-05-05T21:38:48.720Z,1.73
2023-05-05T21:41:16.825Z,1.70
2023-05-05T21:43:44.789Z,1.87
2023-05-05T21:46:12.952Z,2.10
2023-05-05T21:48:41.445Z,1.77
2023-05-05T21:51:09.398Z,1.87
2023-05-05T21:53:37.921Z,2.20
2023-05-05T21:56:08.402Z,1.80
2023-05-05T21:58:36.538Z,2.20
2023-05-05T22:01:04.568Z,1.70
2023-05-05T22:03:32.679Z,1.80
2023-05-05T22:06:00.656Z,2.10
2023-05-05T22:08:28.613Z,1.80
2023-05-05T22:10:56.477Z,1.60
2023-05-05T22:13:25.756Z,1.67
2023-05-05T22:15:53.825Z,1.50
2023-05-05T22:18:21.709Z,1.90
2023-05-05T22:20:49.628Z,1.70
2023-05-05T22:23:17.545Z,1.93
2023-05-05T22:25:45.492Z,1.80
2023-05-05T22:28:13.433Z,1.73
2023-05-05T22:30:42.777Z,1.70
2023-05-05T22:33:10.929Z,1.60
2023-05-05T22:35:39.126Z,1.70
2023-05-05T22:38:07.149Z,1.90
2023-05-05T22:40:35.152Z,1.30
2023-05-05T22:43:03.109Z,1.63
2023-05-05T22:45:31.225Z,2.13
2023-05-05T22:48:00.856Z,1.87
2023-05-05T22:50:29.020Z,1.70
2023-05-05T22:52:57.293Z,1.80
2023-05-05T22:55:25.226Z,1.70
2023-05-05T22:57:53.619Z,1.83
2023-05-05T23:00:21.536Z,1.97
2023-05-05T23:02:49.506Z,1.60
2023-05-05T23:05:18.974Z,1.77
2023-05-05T23:07:46.856Z,2.20
2023-05-05T23:10:14.773Z,1.60
2023-05-05T23:12:42.726Z,2.13
2023-05-05T23:15:11.669Z,2.10
2023-05-05T23:17:39.875Z,1.90
2023-05-05T23:20:09.775Z,2.03
2023-05-05T23:22:39.102Z,1.87
2023-05-05T23:25:08.167Z,1.60
2023-05-05T23:27:36.291Z,2.00
2023-05-05T23:30:04.219Z,1.90
2023-05-05T23:32:32.215Z,1.90
2023-05-05T23:35:00.133Z,1.83
2023-05-05T23:37:28.542Z,2.10
2023-05-05T23:39:57.839Z,1.73
2023-05-05T23:42:25.833Z,1.53
2023-05-05T23:44:53.741Z,1.87
2023-05-05T23:47:21.649Z,2.03
2023-05-05T23:49:49.521Z,2.83
2023-05-05T23:52:17.417Z,1.83
2023-05-05T23:54:46.131Z,2.00
2023-05-05T23:57:16.096Z,2.07
2023-05-05T23:59:43.996Z,1.80
